createdAt,value
2023-03-16T00:02:21.370Z,0.68
2023-03-16T00:04:50.605Z,0.61
2023-03-16T00:07:18.588Z,0.59
2023-03-16T00:09:46.061Z,0.54
2023-03-16T00:12:17.007Z,0.50
2023-03-16T00:14:46.470Z,0.48
2023-03-16T00:17:19.768Z,0.46
2023-03-16T00:19:55.576Z,0.42
2023-03-16T00:22:25.500Z,0.40
2023-03-16T00:24:53.196Z,0.36
2023-03-16T00:27:23.291Z,0.34
2023-03-16T00:29:56.474Z,0.31
2023-03-16T00:32:26.794Z,0.34
2023-03-16T00:34:54.764Z,0.35
2023-03-16T00:37:23.951Z,0.34
2023-03-16T00:39:51.938Z,0.39
2023-03-16T00:42:20.491Z,0.34
2023-03-16T00:44:47.692Z,0.38
2023-03-16T00:47:15.470Z,0.42
2023-03-16T00:49:44.628Z,0.40
2023-03-16T00:52:16.836Z,0.40
2023-03-16T00:54:46.502Z,0.41
2023-03-16T00:57:16.793Z,0.41
2023-03-16T00:59:44.106Z,0.45
2023-03-16T01:02:12.992Z,0.47
2023-03-16T01:04:41.498Z,0.54
2023-03-16T01:07:12.727Z,0.68
2023-03-16T01:09:41.554Z,0.83
2023-03-16T01:12:15.785Z,0.96
2023-03-16T01:14:48.782Z,1.09
2023-03-16T01:17:18.433Z,1.20
2023-03-16T01:19:46.479Z,1.30
2023-03-16T01:22:14.243Z,1.39
2023-03-16T01:24:42.909Z,1.47
2023-03-16T01:27:10.564Z,1.54
2023-03-16T01:29:38.721Z,1.62
2023-03-16T01:32:07.715Z,1.69
2023-03-16T01:34:35.711Z,1.74
2023-03-16T01:37:04.041Z,1.80
2023-03-16T01:39:47.365Z,1.87
2023-03-16T01:42:15.281Z,1.94
2023-03-16T01:45:01.825Z,2.04
2023-03-16T01:47:38.690Z,2.13
2023-03-16T01:50:10.557Z,2.23
2023-03-16T01:52:40.465Z,2.34
2023-03-16T01:55:13.493Z,2.46
2023-03-16T01:57:43.856Z,2.57
2023-03-16T02:00:20.099Z,2.68
2023-03-16T02:03:07.642Z,2.78
2023-03-16T02:06:00.289Z,2.88
2023-03-16T02:08:29.963Z,2.99
2023-03-16T02:10:58.227Z,3.07
2023-03-16T02:13:36.965Z,3.16
2023-03-16T02:16:07.746Z,3.24
2023-03-16T02:18:36.736Z,3.32
2023-03-16T02:21:27.423Z,3.42
2023-03-16T02:23:55.537Z,3.50
2023-03-16T02:26:44.953Z,3.61
2023-03-16T02:29:18.992Z,3.71
2023-03-16T02:31:48.127Z,3.74
2023-03-16T02:34:18.081Z,3.81
2023-03-16T02:36:49.202Z,3.80
2023-03-16T02:39:19.875Z,3.85
2023-03-16T02:41:47.941Z,3.84
2023-03-16T02:44:25.364Z,3.81
2023-03-16T02:46:58.615Z,3.80
2023-03-16T02:49:33.059Z,3.82
2023-03-16T02:52:00.435Z,3.81
2023-03-16T02:54:28.088Z,3.80
2023-03-16T02:56:56.431Z,3.81
2023-03-16T02:59:24.824Z,3.84
2023-03-16T03:01:52.058Z,3.82
2023-03-16T03:04:19.523Z,3.83
2023-03-16T03:06:49.324Z,3.85
2023-03-16T03:09:16.730Z,3.82
2023-03-16T03:11:44.390Z,3.73
2023-03-16T03:14:11.623Z,3.68
2023-03-16T03:16:40.765Z,3.67
2023-03-16T03:19:10.221Z,3.64
2023-03-16T03:21:38.851Z,3.64
2023-03-16T03:24:08.776Z,3.59
2023-03-16T03:26:38.368Z,3.52
2023-03-16T03:29:12.533Z,3.46
2023-03-16T03:31:40.138Z,3.40
2023-03-16T03:34:07.987Z,3.35
2023-03-16T03:36:36.011Z,3.25
2023-03-16T03:39:07.355Z,3.21
2023-03-16T03:41:35.688Z,3.24
2023-03-16T03:44:05.211Z,3.19
2023-03-16T03:46:34.733Z,3.17
2023-03-16T03:49:05.516Z,3.13
2023-03-16T03:51:35.339Z,3.08
2023-03-16T03:54:06.381Z,3.03
2023-03-16T03:57:11.916Z,2.91
2023-03-16T03:59:43.789Z,2.93
2023-03-16T04:02:40.778Z,2.98
2023-03-16T04:05:16.119Z,2.84
2023-03-16T04:07:43.733Z,2.88
2023-03-16T04:10:13.184Z,2.91
2023-03-16T04:12:43.365Z,2.98
2023-03-16T04:15:13.476Z,3.03
2023-03-16T04:18:00.060Z,3.07
2023-03-16T04:20:30.035Z,3.07
2023-03-16T04:23:00.992Z,3.14
2023-03-16T04:25:31.069Z,3.04
2023-03-16T04:27:59.922Z,3.06
2023-03-16T04:30:33.192Z,3.08
2023-03-16T04:33:13.274Z,3.18
2023-03-16T04:35:41.955Z,3.14
2023-03-16T04:38:10.986Z,3.26
2023-03-16T04:40:45.954Z,3.28
2023-03-16T04:43:21.039Z,3.34
2023-03-16T04:45:49.740Z,3.35
2023-03-16T04:48:17.651Z,3.34
2023-03-16T04:50:46.542Z,3.36
2023-03-16T04:53:13.884Z,3.39
2023-03-16T04:55:42.300Z,3.49
2023-03-16T04:58:09.891Z,3.18
2023-03-16T05:00:41.576Z,3.43
2023-03-16T05:03:23.025Z,3.50
2023-03-16T05:05:51.247Z,3.44
2023-03-16T05:08:19.126Z,3.57
2023-03-16T05:10:50.171Z,3.59
2023-03-16T05:13:19.450Z,3.60
2023-03-16T05:15:49.015Z,3.66
2023-03-16T05:18:28.566Z,3.83
2023-03-16T05:20:56.905Z,3.89
2023-03-16T05:23:29.510Z,3.89
2023-03-16T05:26:01.326Z,4.09
2023-03-16T05:28:32.240Z,4.21
2023-03-16T05:31:10.304Z,4.31
2023-03-16T05:33:43.441Z,4.37
2023-03-16T05:36:15.232Z,4.50
2023-03-16T05:38:46.645Z,4.45
2023-03-16T05:41:23.357Z,4.55
2023-03-16T05:44:20.469Z,4.61
2023-03-16T05:47:14.578Z,4.65
2023-03-16T05:49:46.731Z,4.66
2023-03-16T05:52:26.357Z,4.59
2023-03-16T05:54:56.680Z,4.77
2023-03-16T05:57:24.365Z,4.64
2023-03-16T05:59:53.531Z,4.82
2023-03-16T06:02:22.479Z,4.90
2023-03-16T06:04:50.552Z,4.90
2023-03-16T06:07:18.805Z,4.99
2023-03-16T06:09:46.670Z,4.98
2023-03-16T06:12:16.854Z,5.01
2023-03-16T06:14:44.615Z,5.03
2023-03-16T06:17:12.042Z,5.08
2023-03-16T06:19:41.709Z,5.02
2023-03-16T06:22:10.572Z,5.02
2023-03-16T06:24:39.411Z,5.15
2023-03-16T06:27:08.355Z,4.98
2023-03-16T06:29:50.564Z,4.96
2023-03-16T06:32:18.451Z,5.04
2023-03-16T06:34:46.391Z,5.05
2023-03-16T06:37:16.339Z,4.98
2023-03-16T06:39:45.223Z,4.99
2023-03-16T06:42:13.058Z,4.98
2023-03-16T06:44:40.598Z,5.00
2023-03-16T06:47:11.018Z,5.06
2023-03-16T06:49:39.335Z,5.05
2023-03-16T06:52:17.316Z,4.96
2023-03-16T06:54:44.840Z,4.97
2023-03-16T06:57:14.410Z,5.02
2023-03-16T06:59:44.082Z,4.91
2023-03-16T07:02:15.601Z,4.93
2023-03-16T07:04:44.423Z,5.01
2023-03-16T07:07:12.703Z,4.98
2023-03-16T07:09:41.886Z,5.04
2023-03-16T07:12:11.124Z,4.99
2023-03-16T07:14:38.638Z,5.07
2023-03-16T07:17:06.999Z,5.11
2023-03-16T07:19:34.956Z,5.16
2023-03-16T07:22:04.285Z,5.24
2023-03-16T07:24:36.364Z,5.24
2023-03-16T07:27:04.477Z,5.29
2023-03-16T07:29:34.719Z,5.31
2023-03-16T07:32:04.365Z,5.33
2023-03-16T07:34:37.187Z,5.42
2023-03-16T07:37:05.886Z,5.54
2023-03-16T07:39:34.966Z,5.58
2023-03-16T07:42:09.056Z,5.58
2023-03-16T07:44:51.941Z,5.70
2023-03-16T07:47:20.526Z,5.69
2023-03-16T07:49:49.136Z,5.75
2023-03-16T07:52:17.540Z,5.83
2023-03-16T07:54:46.543Z,5.90
2023-03-16T07:57:14.913Z,6.00
2023-03-16T07:59:44.422Z,6.09
2023-03-16T08:02:17.396Z,6.03
2023-03-16T08:04:46.566Z,6.23
2023-03-16T08:07:17.417Z,6.33
2023-03-16T08:10:07.044Z,6.48
2023-03-16T08:12:46.958Z,6.60
2023-03-16T08:15:15.962Z,6.63
2023-03-16T08:17:44.546Z,6.67
2023-03-16T08:20:19.571Z,6.57
2023-03-16T08:22:50.172Z,6.53
2023-03-16T08:25:22.515Z,6.50
2023-03-16T08:28:05.315Z,6.59
2023-03-16T08:30:33.579Z,6.57
2023-03-16T08:33:40.051Z,6.49
2023-03-16T08:36:14.304Z,6.48
2023-03-16T08:38:50.929Z,6.53
2023-03-16T08:41:31.193Z,6.50
2023-03-16T08:44:03.559Z,6.59
2023-03-16T08:46:31.814Z,6.61
2023-03-16T08:49:00.693Z,6.52
2023-03-16T08:51:30.125Z,6.53
2023-03-16T08:53:57.885Z,6.59
2023-03-16T08:56:25.777Z,6.57
2023-03-16T08:58:53.720Z,6.54
2023-03-16T09:01:22.650Z,6.54
2023-03-16T09:03:52.055Z,6.49
2023-03-16T09:06:20.160Z,6.59
2023-03-16T09:08:48.400Z,6.59
2023-03-16T09:11:19.173Z,6.49
2023-03-16T09:13:47.765Z,6.47
2023-03-16T09:16:16.787Z,6.60
2023-03-16T09:18:44.378Z,6.65
2023-03-16T09:21:16.211Z,6.62
2023-03-16T09:23:44.465Z,6.56
2023-03-16T09:26:13.590Z,6.64
2023-03-16T09:28:48.335Z,6.75
2023-03-16T09:31:21.465Z,6.82
2023-03-16T09:33:50.488Z,6.73
2023-03-16T09:36:19.023Z,6.80
2023-03-16T09:38:47.624Z,6.78
2023-03-16T09:41:40.732Z,7.01
2023-03-16T09:44:14.402Z,7.11
2023-03-16T09:46:49.071Z,7.13
2023-03-16T09:49:21.600Z,7.11
2023-03-16T09:51:59.670Z,7.15
2023-03-16T09:54:52.349Z,7.11
2023-03-16T09:57:36.153Z,7.07
2023-03-16T10:00:22.442Z,7.16
2023-03-16T10:02:50.112Z,7.16
2023-03-16T10:05:22.166Z,7.24
2023-03-16T10:08:04.684Z,7.03
2023-03-16T10:11:12.673Z,7.14
2023-03-16T10:13:46.551Z,6.98
2023-03-16T10:16:21.867Z,7.11
2023-03-16T10:18:54.614Z,7.19
2023-03-16T10:21:25.100Z,7.17
2023-03-16T10:23:56.495Z,7.14
2023-03-16T10:26:30.302Z,7.23
2023-03-16T10:28:58.136Z,7.28
2023-03-16T10:31:26.248Z,7.24
2023-03-16T10:34:03.258Z,7.25
2023-03-16T10:36:44.740Z,7.32
2023-03-16T10:39:17.091Z,7.33
2023-03-16T10:41:55.215Z,7.34
2023-03-16T10:44:29.276Z,7.25
2023-03-16T10:47:04.360Z,7.13
2023-03-16T10:49:47.382Z,7.09
2023-03-16T10:52:16.698Z,7.06
2023-03-16T10:55:10.750Z,7.09
2023-03-16T10:57:43.610Z,7.09
2023-03-16T11:00:21.424Z,7.01
2023-03-16T11:02:51.806Z,7.02
2023-03-16T11:05:20.183Z,6.75
2023-03-16T11:08:19.737Z,6.64
2023-03-16T11:10:58.220Z,6.56
2023-03-16T11:13:35.141Z,6.62
2023-03-16T11:16:15.230Z,6.71
2023-03-16T11:18:50.756Z,6.52
2023-03-16T11:21:52.133Z,6.48
2023-03-16T11:24:43.666Z,6.60
2023-03-16T11:27:33.831Z,6.45
2023-03-16T11:30:07.660Z,6.36
2023-03-16T11:32:40.796Z,6.28
2023-03-16T11:35:31.540Z,6.20
2023-03-16T11:38:09.834Z,6.12
2023-03-16T11:40:56.277Z,6.05
2023-03-16T11:43:48.177Z,5.95
2023-03-16T11:46:27.731Z,5.93
2023-03-16T11:49:34.561Z,5.89
2023-03-16T11:52:33.872Z,5.98
2023-03-16T11:55:22.898Z,5.89
2023-03-16T11:58:23.642Z,5.87
2023-03-16T12:01:26.295Z,5.88
2023-03-16T12:04:21.257Z,5.70
2023-03-16T12:07:03.915Z,5.69
2023-03-16T12:09:45.662Z,5.69
2023-03-16T12:12:37.955Z,5.73
2023-03-16T12:15:35.424Z,5.75
2023-03-16T12:18:26.987Z,5.58
2023-03-16T12:21:03.862Z,5.64
2023-03-16T12:23:39.857Z,5.65
2023-03-16T12:26:09.081Z,5.58
2023-03-16T12:28:37.783Z,5.55
2023-03-16T12:31:27.978Z,5.48
2023-03-16T12:34:34.927Z,5.32
2023-03-16T12:37:20.568Z,5.30
2023-03-16T12:40:34.204Z,5.24
2023-03-16T12:43:01.949Z,5.07
2023-03-16T12:46:14.617Z,5.14
2023-03-16T12:49:02.313Z,5.15
2023-03-16T12:51:41.846Z,5.12
2023-03-16T12:54:24.168Z,4.98
2023-03-16T12:56:56.042Z,5.08
2023-03-16T12:59:25.522Z,5.12
2023-03-16T13:01:59.777Z,5.14
2023-03-16T13:04:38.799Z,5.01
2023-03-16T13:07:31.613Z,5.03
2023-03-16T13:10:15.192Z,5.08
2023-03-16T13:12:44.684Z,5.05
2023-03-16T13:15:27.222Z,5.01
2023-03-16T13:18:10.182Z,5.06
2023-03-16T13:20:51.773Z,4.97
2023-03-16T13:23:19.446Z,4.92
2023-03-16T13:26:16.672Z,4.89
2023-03-16T13:28:52.847Z,4.79
2023-03-16T13:31:29.608Z,4.82
2023-03-16T13:34:00.580Z,4.81
2023-03-16T13:36:33.009Z,4.77
2023-03-16T13:39:21.309Z,4.69
2023-03-16T13:42:18.129Z,4.77
2023-03-16T13:44:46.559Z,4.81
2023-03-16T13:47:19.375Z,4.76
2023-03-16T13:49:50.553Z,4.69
2023-03-16T13:52:22.880Z,4.67
2023-03-16T13:54:52.840Z,4.56
2023-03-16T13:57:27.998Z,4.62
2023-03-16T14:00:20.504Z,4.64
2023-03-16T14:02:53.695Z,4.51
2023-03-16T14:05:33.727Z,4.37
2023-03-16T14:08:02.458Z,4.45
2023-03-16T14:10:35.890Z,4.44
2023-03-16T14:13:09.798Z,4.48
2023-03-16T14:15:39.351Z,4.51
2023-03-16T14:18:17.086Z,4.41
2023-03-16T14:20:45.488Z,4.48
2023-03-16T14:23:36.697Z,4.50
2023-03-16T14:26:07.217Z,4.49
2023-03-16T14:28:35.160Z,4.54
2023-03-16T14:31:20.053Z,4.60
2023-03-16T14:33:49.277Z,4.59
2023-03-16T14:36:20.106Z,4.63
2023-03-16T14:38:49.527Z,4.52
2023-03-16T14:41:27.864Z,4.54
2023-03-16T14:43:59.246Z,4.45
2023-03-16T14:46:41.806Z,4.43
2023-03-16T14:49:28.390Z,4.44
2023-03-16T14:52:22.740Z,4.41
2023-03-16T14:54:51.797Z,4.36
2023-03-16T14:57:20.652Z,4.34
2023-03-16T14:59:49.718Z,4.36
2023-03-16T15:02:32.701Z,4.37
2023-03-16T15:05:02.500Z,4.45
2023-03-16T15:07:36.136Z,4.33
2023-03-16T15:10:11.244Z,4.22
2023-03-16T15:12:41.509Z,4.18
2023-03-16T15:15:17.609Z,4.15
2023-03-16T15:17:49.508Z,4.02
2023-03-16T15:20:26.576Z,3.98
2023-03-16T15:22:55.587Z,4.00
2023-03-16T15:25:42.459Z,3.96
2023-03-16T15:28:16.921Z,3.87
2023-03-16T15:30:53.822Z,3.90
2023-03-16T15:33:24.613Z,3.78
2023-03-16T15:35:56.153Z,3.89
2023-03-16T15:38:47.843Z,3.83
2023-03-16T15:41:17.460Z,3.75
2023-03-16T15:43:46.747Z,3.74
2023-03-16T15:46:15.702Z,3.73
2023-03-16T15:48:44.636Z,3.78
2023-03-16T15:51:22.359Z,3.76
2023-03-16T15:54:00.294Z,3.77
2023-03-16T15:56:32.346Z,3.72
2023-03-16T15:59:08.162Z,3.62
2023-03-16T16:01:46.445Z,3.71
2023-03-16T16:04:17.787Z,3.69
2023-03-16T16:06:46.404Z,3.73
2023-03-16T16:09:14.482Z,3.68
2023-03-16T16:11:43.270Z,3.67
2023-03-16T16:14:23.630Z,3.66
2023-03-16T16:16:52.236Z,3.57
2023-03-16T16:19:19.817Z,3.60
2023-03-16T16:21:48.312Z,3.58
2023-03-16T16:24:18.087Z,3.52
2023-03-16T16:26:54.873Z,3.52
2023-03-16T16:29:25.488Z,3.45
2023-03-16T16:31:53.094Z,3.53
2023-03-16T16:34:24.799Z,3.47
2023-03-16T16:36:53.302Z,3.43
2023-03-16T16:39:21.315Z,3.47
2023-03-16T16:41:51.087Z,3.42
2023-03-16T16:44:23.876Z,3.44
2023-03-16T16:46:52.582Z,3.51
2023-03-16T16:49:24.229Z,3.43
2023-03-16T16:51:53.391Z,3.46
2023-03-16T16:54:26.183Z,3.41
2023-03-16T16:56:54.257Z,3.38
2023-03-16T16:59:28.338Z,3.32
2023-03-16T17:01:56.756Z,3.34
2023-03-16T17:04:27.241Z,3.27
2023-03-16T17:06:58.999Z,3.32
2023-03-16T17:09:28.223Z,3.36
2023-03-16T17:11:59.144Z,3.26
2023-03-16T17:14:28.659Z,3.35
2023-03-16T17:16:57.329Z,3.38
2023-03-16T17:19:28.158Z,3.20
2023-03-16T17:21:58.562Z,3.24
2023-03-16T17:24:26.095Z,3.20
2023-03-16T17:26:57.660Z,3.30
2023-03-16T17:29:29.417Z,3.24
2023-03-16T17:31:56.606Z,3.34
2023-03-16T17:34:29.424Z,3.33
2023-03-16T17:36:56.837Z,3.32
2023-03-16T17:39:30.117Z,3.33
2023-03-16T17:42:12.331Z,3.28
2023-03-16T17:44:46.128Z,3.19
2023-03-16T17:47:18.531Z,3.19
2023-03-16T17:49:49.101Z,3.22
2023-03-16T17:52:20.018Z,3.23
2023-03-16T17:54:48.578Z,3.22
2023-03-16T17:57:22.954Z,3.18
2023-03-16T17:59:50.526Z,3.20
2023-03-16T18:02:50.110Z,3.20
2023-03-16T18:05:38.701Z,3.15
2023-03-16T18:08:28.418Z,3.21
2023-03-16T18:11:08.056Z,3.20
2023-03-16T18:13:38.508Z,3.24
2023-03-16T18:16:08.841Z,3.24
2023-03-16T18:18:41.951Z,3.25
2023-03-16T18:21:22.373Z,3.21
2023-03-16T18:23:51.155Z,3.10
2023-03-16T18:26:19.944Z,3.10
2023-03-16T18:28:49.263Z,3.10
2023-03-16T18:31:19.427Z,3.07
2023-03-16T18:33:49.694Z,3.03
2023-03-16T18:36:29.963Z,3.03
2023-03-16T18:39:00.163Z,2.99
2023-03-16T18:41:30.124Z,2.78
2023-03-16T18:44:01.020Z,2.86
2023-03-16T18:46:41.941Z,2.86
2023-03-16T18:49:39.461Z,2.83
2023-03-16T18:52:21.308Z,2.82
2023-03-16T18:54:49.365Z,2.86
2023-03-16T18:57:19.744Z,2.85
2023-03-16T18:59:47.875Z,2.85
2023-03-16T19:02:31.017Z,2.89
2023-03-16T19:05:00.637Z,2.91
2023-03-16T19:07:43.323Z,2.84
2023-03-16T19:10:33.286Z,2.85
2023-03-16T19:13:01.139Z,2.84
2023-03-16T19:15:32.178Z,2.81
2023-03-16T19:18:00.654Z,2.66
2023-03-16T19:20:30.701Z,2.70
2023-03-16T19:23:06.971Z,2.73
2023-03-16T19:25:39.949Z,2.78
2023-03-16T19:28:38.319Z,2.77
2023-03-16T19:31:16.593Z,2.75
2023-03-16T19:33:44.320Z,2.75
2023-03-16T19:36:19.260Z,2.67
2023-03-16T19:38:46.764Z,2.65
2023-03-16T19:41:32.653Z,2.67
2023-03-16T19:44:17.136Z,2.65
2023-03-16T19:46:45.533Z,2.64
2023-03-16T19:49:24.435Z,2.53
2023-03-16T19:51:53.401Z,2.43
2023-03-16T19:54:24.619Z,2.52
2023-03-16T19:56:53.985Z,2.61
2023-03-16T19:59:21.505Z,2.59
2023-03-16T20:01:48.988Z,2.54
2023-03-16T20:04:23.355Z,2.56
2023-03-16T20:06:51.217Z,2.57
2023-03-16T20:09:18.788Z,2.64
2023-03-16T20:11:48.090Z,2.63
2023-03-16T20:14:21.269Z,2.51
2023-03-16T20:16:49.646Z,2.46
2023-03-16T20:19:16.895Z,2.52
2023-03-16T20:21:44.376Z,2.51
2023-03-16T20:24:21.155Z,2.41
2023-03-16T20:26:53.753Z,2.45
2023-03-16T20:29:31.684Z,2.46
2023-03-16T20:32:01.547Z,2.41
2023-03-16T20:34:31.799Z,2.40
2023-03-16T20:37:00.000Z,2.48
2023-03-16T20:39:28.064Z,2.47
2023-03-16T20:41:55.944Z,2.51
2023-03-16T20:44:25.695Z,2.49
2023-03-16T20:46:53.487Z,2.37
2023-03-16T20:49:25.403Z,2.50
2023-03-16T20:51:52.887Z,2.48
2023-03-16T20:54:20.893Z,2.49
2023-03-16T20:56:48.306Z,2.50
2023-03-16T20:59:30.320Z,2.45
2023-03-16T21:01:57.711Z,2.45
2023-03-16T21:04:27.934Z,2.50
2023-03-16T21:06:57.029Z,2.39
2023-03-16T21:09:24.260Z,2.36
2023-03-16T21:11:51.954Z,2.41
2023-03-16T21:14:24.664Z,2.50
2023-03-16T21:16:52.630Z,2.42
2023-03-16T21:19:23.123Z,2.40
2023-03-16T21:21:50.985Z,2.42
2023-03-16T21:24:18.279Z,2.40
2023-03-16T21:26:47.824Z,2.47
2023-03-16T21:29:20.903Z,2.36
2023-03-16T21:31:48.836Z,2.40
2023-03-16T21:34:37.140Z,2.42
2023-03-16T21:37:14.385Z,2.43
2023-03-16T21:39:43.444Z,2.18
2023-03-16T21:42:11.234Z,2.24
2023-03-16T21:44:38.508Z,2.24
2023-03-16T21:47:18.433Z,2.32
2023-03-16T21:49:45.810Z,2.37
2023-03-16T21:52:23.750Z,2.39
2023-03-16T21:54:56.204Z,2.43
2023-03-16T21:57:23.929Z,2.46
2023-03-16T21:59:51.434Z,2.34
2023-03-16T22:02:20.782Z,2.35
2023-03-16T22:04:48.964Z,2.50
2023-03-16T22:07:16.862Z,2.48
2023-03-16T22:09:44.112Z,2.50
2023-03-16T22:12:13.556Z,2.52
2023-03-16T22:14:41.350Z,2.55
2023-03-16T22:17:21.127Z,2.50
2023-03-16T22:19:48.901Z,2.52
2023-03-16T22:22:17.632Z,2.56
2023-03-16T22:24:45.566Z,2.59
2023-03-16T22:27:21.840Z,2.63
2023-03-16T22:29:51.366Z,2.60
2023-03-16T22:32:22.247Z,2.49
2023-03-16T22:34:53.219Z,2.62
2023-03-16T22:37:24.544Z,2.50
2023-03-16T22:39:53.018Z,2.52
2023-03-16T22:42:29.587Z,2.64
2023-03-16T22:44:58.209Z,2.70
2023-03-16T22:47:28.818Z,2.67
2023-03-16T22:49:57.150Z,2.54
2023-03-16T22:52:33.692Z,2.64
2023-03-16T22:55:03.465Z,2.57
2023-03-16T22:57:31.492Z,2.64
2023-03-16T23:00:00.150Z,2.56
2023-03-16T23:02:29.261Z,2.57
2023-03-16T23:04:56.519Z,2.60
2023-03-16T23:07:24.363Z,2.52
2023-03-16T23:09:52.699Z,2.57
2023-03-16T23:12:21.877Z,2.62
2023-03-16T23:14:49.625Z,2.68
2023-03-16T23:17:19.987Z,2.49
2023-03-16T23:19:48.390Z,2.50
2023-03-16T23:22:16.600Z,2.51
2023-03-16T23:24:46.038Z,2.52
2023-03-16T23:27:19.434Z,2.57
2023-03-16T23:29:47.009Z,2.66
2023-03-16T23:32:17.397Z,2.73
2023-03-16T23:34:45.441Z,2.73
2023-03-16T23:37:13.209Z,2.77
2023-03-16T23:39:40.548Z,2.82
2023-03-16T23:42:08.204Z,2.77
2023-03-16T23:44:36.649Z,2.81
2023-03-16T23:47:03.916Z,2.83
2023-03-16T23:49:37.872Z,2.84
2023-03-16T23:52:05.654Z,2.83
2023-03-16T23:54:33.643Z,2.79
2023-03-16T23:57:01.396Z,2.83
2023-03-16T23:59:28.961Z,2.83
